Time;durP1;ratioP1;P1;durP2;ratioP2;P2;SDS_P1;SDS_P2;PMS_P1;PMS_P2;Temp;Humidity;BMP_temperature;BMP_pressure;BME280_temperature;BME280_humidity;BME280_pressure;Samples;Min_cycle;Max_cycle;Signal;HPM_P1;HPM_P2
2022/01/02 00:00:40;;;;;;;22.67;10.70;;;1.20;99.90;;;;;;5043073;28;20437;-61
2022/01/02 00:03:07;;;;;;;23.73;10.23;;;1.20;99.90;;;;;;5035723;28;20956;-59
2022/01/02 00:05:36;;;;;;;19.13;9.00;;;1.20;99.90;;;;;;5030664;28;20798;-59
2022/01/02 00:08:06;;;;;;;40.37;10.03;;;1.30;99.90;;;;;;5023275;28;20460;-58
2022/01/02 00:10:56;;;;;;;26.63;8.80;;;1.30;99.90;;;;;;5021740;28;20444;-59
2022/01/02 00:13:33;;;;;;;23.20;9.07;;;1.30;99.90;;;;;;5038578;28;20502;-60
2022/01/02 00:16:04;;;;;;;17.87;8.33;;;1.30;99.90;;;;;;5021626;28;20473;-58
2022/01/02 00:18:37;;;;;;;23.87;7.90;;;1.20;99.90;;;;;;5028575;28;20585;-59
2022/01/02 00:21:07;;;;;;;12.60;8.07;;;1.20;99.90;;;;;;5026314;28;20440;-60
2022/01/02 00:23:49;;;;;;;16.90;8.60;;;1.20;99.90;;;;;;5026140;28;20528;-59
2022/01/02 00:26:18;;;;;;;20.47;12.07;;;1.20;99.90;;;;;;5019540;28;20452;-57
2022/01/02 00:28:46;;;;;;;32.93;10.83;;;1.20;99.90;;;;;;5009820;28;21039;-58
2022/01/02 00:31:12;;;;;;;12.27;9.20;;;1.20;99.90;;;;;;5033882;28;20478;-59
2022/01/02 00:33:40;;;;;;;16.83;8.70;;;1.20;99.90;;;;;;5005736;28;20891;-59
2022/01/02 00:36:06;;;;;;;22.40;9.97;;;1.20;99.90;;;;;;5002126;28;20452;-59
2022/01/02 00:38:31;;;;;;;21.87;10.43;;;1.20;99.90;;;;;;5021042;28;20873;-59
2022/01/02 00:40:58;;;;;;;23.53;9.47;;;1.20;99.90;;;;;;5024814;28;20614;-58
2022/01/02 00:43:32;;;;;;;74.17;12.73;;;1.20;99.90;;;;;;5027975;28;20228;-59
2022/01/02 00:46:03;;;;;;;65.17;12.43;;;1.20;99.90;;;;;;5022505;28;20486;-58
2022/01/02 00:48:29;;;;;;;38.83;10.70;;;1.20;99.90;;;;;;5035003;28;20483;-60
2022/01/02 00:51:03;;;;;;;48.50;10.90;;;1.10;99.90;;;;;;4994712;28;20449;-59
2022/01/02 00:53:34;;;;;;;17.50;9.67;;;1.10;99.90;;;;;;5023787;28;20926;-58
2022/01/02 00:56:02;;;;;;;93.13;10.47;;;1.00;99.90;;;;;;5013541;28;20538;-59
2022/01/02 00:58:39;;;;;;;83.77;13.70;;;1.00;99.90;;;;;;5006449;28;20456;-58
2022/01/02 01:01:09;;;;;;;24.43;9.13;;;1.00;99.90;;;;;;5030973;28;20539;-60
2022/01/02 01:03:39;;;;;;;24.13;10.00;;;1.00;99.90;;;;;;5026198;28;20557;-59
2022/01/02 01:06:05;;;;;;;24.30;9.87;;;1.00;99.90;;;;;;5005368;28;20615;-58
2022/01/02 01:08:32;;;;;;;18.73;10.03;;;0.90;99.90;;;;;;5026961;28;21121;-59
2022/01/02 01:10:59;;;;;;;46.13;11.50;;;1.00;99.90;;;;;;5020431;28;20207;-59
2022/01/02 01:13:25;;;;;;;16.80;9.93;;;1.00;99.90;;;;;;5008176;28;20475;-59
2022/01/02 01:15:50;;;;;;;42.50;9.90;;;0.90;99.90;;;;;;5026459;28;20499;-59
2022/01/02 01:18:16;;;;;;;84.17;9.03;;;0.90;99.90;;;;;;5037020;28;20238;-59
2022/01/02 01:20:43;;;;;;;23.10;7.23;;;0.90;99.90;;;;;;5026526;28;20178;-60
2022/01/02 01:23:15;;;;;;;36.37;8.80;;;0.80;99.90;;;;;;5013853;28;20999;-58
2022/01/02 01:25:44;;;;;;;87.73;10.47;;;0.80;99.90;;;;;;5031932;28;20431;-59
2022/01/02 01:28:10;;;;;;;21.93;7.87;;;0.90;99.90;;;;;;5017229;28;20459;-58
2022/01/02 01:30:36;;;;;;;15.07;7.50;;;0.90;99.90;;;;;;5026024;28;20428;-57
2022/01/02 01:33:02;;;;;;;15.70;6.63;;;0.90;99.90;;;;;;5027703;28;20432;-58
2022/01/02 01:35:27;;;;;;;49.30;8.97;;;0.90;99.90;;;;;;5027607;28;20200;-58
2022/01/02 01:37:53;;;;;;;23.90;7.33;;;0.90;99.90;;;;;;5030770;28;20289;-60
2022/01/02 01:40:19;;;;;;;30.00;7.30;;;0.80;99.90;;;;;;5027439;28;20221;-59
2022/01/02 01:42:59;;;;;;;29.57;6.93;;;0.80;99.90;;;;;;5031164;28;20183;-59
2022/01/02 01:48:04;;;;;;;14.37;7.03;;;0.70;99.90;;;;;;5031304;28;20583;-58
2022/01/02 01:50:36;;;;;;;25.20;7.60;;;0.70;99.90;;;;;;5029118;28;20527;-59
2022/01/02 01:53:02;;;;;;;26.00;6.90;;;0.70;99.90;;;;;;5030861;28;20424;-57
2022/01/02 01:55:28;;;;;;;32.40;7.80;;;0.70;99.90;;;;;;5026219;28;21000;-59
2022/01/02 01:57:54;;;;;;;17.47;7.70;;;0.60;99.90;;;;;;5034905;28;20456;-59
2022/01/02 02:00:22;;;;;;;11.83;8.17;;;0.70;99.90;;;;;;5032356;28;20483;-59
2022/01/02 02:02:48;;;;;;;10.27;7.70;;;0.60;99.90;;;;;;5031124;28;20457;-58
2022/01/02 02:05:15;;;;;;;22.50;7.80;;;0.60;99.90;;;;;;5029005;28;20646;-59
2022/01/02 02:07:43;;;;;;;21.23;7.87;;;0.60;99.90;;;;;;5036939;28;20551;-59
2022/01/02 02:10:12;;;;;;;15.40;8.37;;;0.60;99.90;;;;;;5036051;28;20473;-62
2022/01/02 02:12:39;;;;;;;24.07;8.10;;;0.60;99.90;;;;;;5032265;28;20497;-59
2022/01/02 02:15:07;;;;;;;47.93;9.33;;;0.60;99.90;;;;;;5029367;28;20427;-59
2022/01/02 02:17:33;;;;;;;42.07;7.87;;;0.60;99.90;;;;;;5024052;28;20452;-58
2022/01/02 02:20:10;;;;;;;47.67;8.33;;;0.60;99.90;;;;;;5020300;28;20492;-60
2022/01/02 02:22:40;;;;;;;32.93;7.63;;;0.50;99.90;;;;;;5024154;28;20522;-58
2022/01/02 02:25:07;;;;;;;17.77;6.73;;;0.40;99.90;;;;;;5028639;28;20439;-57
2022/01/02 02:27:32;;;;;;;28.90;8.07;;;0.40;99.90;;;;;;5014076;28;20494;-59
2022/01/02 02:29:58;;;;;;;22.13;8.60;;;0.40;99.90;;;;;;5027788;28;20428;-58
2022/01/02 02:32:25;;;;;;;19.60;6.97;;;0.40;99.90;;;;;;5026040;28;20186;-59
2022/01/02 02:34:51;;;;;;;39.63;7.30;;;0.30;99.90;;;;;;5028947;28;20185;-58
2022/01/02 02:37:17;;;;;;;20.43;6.70;;;0.30;99.90;;;;;;5029325;28;20534;-59
2022/01/02 02:39:43;;;;;;;74.40;6.40;;;0.20;99.90;;;;;;5028346;28;20182;-58
2022/01/02 02:42:22;;;;;;;44.10;6.70;;;0.20;99.90;;;;;;5024272;28;20434;-60
2022/01/02 02:44:57;;;;;;;40.77;6.67;;;0.20;99.90;;;;;;5024757;28;20452;-59
2022/01/02 02:50:07;;;;;;;26.70;5.73;;;0.20;99.90;;;;;;5023679;28;21190;-58
2022/01/02 02:52:43;;;;;;;23.87;5.87;;;0.20;99.90;;;;;;5027075;28;20425;-57
2022/01/02 02:55:09;;;;;;;25.80;6.87;;;0.20;99.90;;;;;;5025377;28;20424;-59
2022/01/02 02:57:35;;;;;;;15.00;6.33;;;0.20;99.90;;;;;;5028297;28;20447;-59
2022/01/02 03:00:02;;;;;;;15.60;6.33;;;0.20;99.90;;;;;;5030268;28;20222;-59
2022/01/02 03:02:27;;;;;;;23.47;6.93;;;0.20;99.90;;;;;;5028099;28;20530;-58
2022/01/02 03:04:53;;;;;;;18.37;6.87;;;0.20;99.90;;;;;;5027505;28;20430;-57
2022/01/02 03:07:19;;;;;;;23.77;6.43;;;0.20;99.90;;;;;;5026662;28;20207;-58
2022/01/02 03:09:50;;;;;;;32.13;6.60;;;0.20;99.90;;;;;;5026476;28;20376;-59
2022/01/02 03:12:16;;;;;;;37.87;7.57;;;0.20;99.90;;;;;;5027398;28;20185;-59
2022/01/02 03:14:41;;;;;;;37.27;7.20;;;0.20;99.90;;;;;;5029344;28;20422;-59
2022/01/02 03:17:07;;;;;;;69.90;8.10;;;0.20;99.90;;;;;;5027196;28;20225;-58
2022/01/02 03:19:33;;;;;;;55.60;7.07;;;0.20;99.90;;;;;;5011002;28;20178;-58
2022/01/02 03:22:00;;;;;;;90.40;7.77;;;0.20;99.90;;;;;;5028606;28;20193;-58
2022/01/02 03:24:26;;;;;;;81.43;8.70;;;0.20;99.90;;;;;;5024521;28;20531;-59
2022/01/02 03:26:52;;;;;;;39.57;6.50;;;0.20;99.90;;;;;;5026922;28;20582;-57
2022/01/02 03:29:18;;;;;;;35.43;5.57;;;0.10;99.90;;;;;;5027242;28;20186;-59
2022/01/02 03:31:44;;;;;;;12.70;5.40;;;0.10;99.90;;;;;;5025213;28;20443;-59
2022/01/02 03:34:09;;;;;;;38.90;6.23;;;0.10;99.90;;;;;;5027323;28;20178;-59
2022/01/02 03:36:35;;;;;;;11.07;5.23;;;0.00;99.90;;;;;;5027406;28;20491;-58
2022/01/02 03:39:01;;;;;;;10.63;5.20;;;0.00;99.90;;;;;;5026611;28;20193;-59
2022/01/02 03:41:26;;;;;;;9.60;5.10;;;0.00;99.90;;;;;;5027356;28;20212;-59
2022/01/02 03:43:52;;;;;;;29.57;5.60;;;0.10;99.90;;;;;;5026860;28;20423;-59
2022/01/02 03:46:18;;;;;;;15.43;5.20;;;0.10;99.90;;;;;;5027289;28;20176;-59
2022/01/02 03:48:44;;;;;;;29.53;5.10;;;0.00;99.90;;;;;;5025107;28;20596;-58
2022/01/02 03:51:10;;;;;;;15.87;4.77;;;0.00;99.90;;;;;;5025297;28;20462;-59
2022/01/02 03:53:35;;;;;;;8.57;4.60;;;0.00;99.90;;;;;;5027720;28;20182;-59
2022/01/02 03:56:01;;;;;;;19.23;5.03;;;0.00;99.90;;;;;;5008849;28;20216;-58
2022/01/02 03:58:27;;;;;;;9.23;5.40;;;0.00;99.90;;;;;;5027475;28;20201;-59
2022/01/02 04:00:52;;;;;;;7.90;5.17;;;0.00;99.90;;;;;;5026276;28;20196;-60
2022/01/02 04:03:18;;;;;;;8.57;5.53;;;0.00;99.90;;;;;;5009547;28;20830;-59
2022/01/02 04:05:44;;;;;;;8.33;5.80;;;0.00;99.90;;;;;;5026870;28;20185;-59
2022/01/02 04:08:11;;;;;;;34.97;5.20;;;0.00;99.90;;;;;;5025588;28;20304;-59
2022/01/02 04:10:37;;;;;;;11.53;4.97;;;0.00;99.90;;;;;;5027008;28;20455;-58
2022/01/02 04:13:02;;;;;;;6.00;5.00;;;0.00;99.90;;;;;;5027621;28;20424;-59
2022/01/02 04:15:28;;;;;;;6.03;4.93;;;0.00;99.90;;;;;;5026432;28;20327;-58
2022/01/02 04:17:54;;;;;;;8.60;4.43;;;0.00;99.90;;;;;;5025290;28;20220;-58
2022/01/02 04:20:20;;;;;;;20.97;5.90;;;0.00;99.90;;;;;;5008248;28;20197;-59
2022/01/02 04:22:45;;;;;;;11.33;4.63;;;0.10;99.90;;;;;;5009472;28;20429;-59
2022/01/02 04:25:12;;;;;;;9.50;5.80;;;0.10;99.90;;;;;;5024946;28;20217;-59
2022/01/02 04:27:38;;;;;;;17.93;5.97;;;0.00;99.90;;;;;;5027435;28;20236;-59
2022/01/02 04:30:06;;;;;;;11.90;4.90;;;0.00;99.90;;;;;;5027502;28;20456;-59
2022/01/02 04:32:32;;;;;;;8.50;5.63;;;0.00;99.90;;;;;;5026416;28;20470;-59
2022/01/02 04:34:57;;;;;;;10.07;5.80;;;0.00;99.90;;;;;;5008231;28;20528;-59
2022/01/02 04:37:23;;;;;;;8.93;5.17;;;0.00;99.90;;;;;;5025177;28;20292;-59
2022/01/02 04:39:49;;;;;;;15.60;5.60;;;0.00;99.90;;;;;;5025902;28;20188;-59
2022/01/02 04:42:14;;;;;;;17.87;5.43;;;0.10;99.90;;;;;;5026389;28;20182;-59
2022/01/02 04:44:40;;;;;;;8.17;5.30;;;0.00;99.90;;;;;;5024257;28;20174;-59
2022/01/02 04:47:06;;;;;;;14.57;5.27;;;0.00;99.90;;;;;;5026721;28;20240;-58
2022/01/02 04:49:31;;;;;;;23.87;5.63;;;0.00;99.90;;;;;;5025745;28;20200;-58
2022/01/02 04:51:57;;;;;;;26.10;6.07;;;0.00;99.90;;;;;;5023605;28;20201;-59
2022/01/02 04:54:25;;;;;;;14.20;5.10;;;0.00;99.90;;;;;;5024459;28;20185;-59
2022/01/02 04:56:50;;;;;;;13.60;5.70;;;-0.10;99.90;;;;;;5025131;28;20224;-57
2022/01/02 04:59:16;;;;;;;25.30;5.90;;;-0.10;99.90;;;;;;5023807;28;20444;-58
2022/01/02 05:01:42;;;;;;;8.83;4.67;;;-0.10;99.90;;;;;;5023853;28;20212;-59
2022/01/02 05:04:07;;;;;;;54.00;5.80;;;-0.10;99.90;;;;;;5009687;28;20190;-59
2022/01/02 05:06:33;;;;;;;20.80;4.60;;;-0.10;99.90;;;;;;5024420;28;20554;-58
2022/01/02 05:09:00;;;;;;;8.40;4.37;;;-0.10;99.90;;;;;;5025770;28;20204;-59
2022/01/02 05:11:26;;;;;;;4.80;3.50;;;-0.10;99.90;;;;;;5024887;28;20174;-59
2022/01/02 05:13:51;;;;;;;4.90;4.10;;;-0.10;99.90;;;;;;5025399;28;20459;-59
2022/01/02 05:16:17;;;;;;;8.03;4.10;;;-0.10;99.90;;;;;;5005626;28;20691;-58
2022/01/02 05:18:43;;;;;;;24.50;4.77;;;-0.10;99.90;;;;;;5024547;28;20647;-59
2022/01/02 05:21:08;;;;;;;7.13;4.37;;;-0.10;99.90;;;;;;5024009;28;20185;-59
2022/01/02 05:23:34;;;;;;;20.07;5.13;;;-0.10;99.90;;;;;;5026293;28;20258;-59
2022/01/02 05:26:00;;;;;;;20.17;4.40;;;-0.10;99.90;;;;;;5025396;28;20200;-57
2022/01/02 05:28:26;;;;;;;11.57;4.10;;;-0.10;99.90;;;;;;5025205;28;20480;-59
2022/01/02 05:30:52;;;;;;;24.37;4.00;;;-0.20;99.90;;;;;;5028631;28;20702;-58
2022/01/02 05:33:17;;;;;;;10.97;4.13;;;-0.20;99.90;;;;;;5029297;28;20437;-59
2022/01/02 05:35:43;;;;;;;35.77;4.30;;;-0.20;99.90;;;;;;5029744;28;20205;-59
2022/01/02 05:38:09;;;;;;;15.10;4.20;;;-0.20;99.90;;;;;;5028970;28;20203;-60
2022/01/02 05:40:35;;;;;;;9.00;4.07;;;-0.30;99.90;;;;;;5028549;28;20953;-59
2022/01/02 05:43:06;;;;;;;18.77;4.07;;;-0.30;99.90;;;;;;5029158;28;20707;-59
2022/01/02 05:45:32;;;;;;;10.10;4.57;;;-0.30;99.90;;;;;;5028373;28;20186;-59
2022/01/02 05:47:58;;;;;;;5.60;3.90;;;-0.30;99.90;;;;;;5008032;28;21144;-59
2022/01/02 05:50:24;;;;;;;11.43;4.97;;;-0.30;99.90;;;;;;5028218;28;20519;-58
2022/01/02 05:52:50;;;;;;;12.97;4.20;;;-0.30;99.90;;;;;;5029523;28;20204;-59
2022/01/02 05:55:16;;;;;;;18.20;4.80;;;-0.30;99.90;;;;;;5029805;28;20439;-59
2022/01/02 05:57:41;;;;;;;12.93;4.40;;;-0.30;99.90;;;;;;5028779;28;20456;-59
2022/01/02 06:00:08;;;;;;;5.80;4.00;;;-0.40;99.90;;;;;;5029163;28;20443;-57
2022/01/02 06:02:34;;;;;;;18.17;4.57;;;-0.40;99.90;;;;;;5027848;28;20478;-59
2022/01/02 06:05:02;;;;;;;9.10;3.90;;;-0.30;99.90;;;;;;5028470;28;20463;-59
2022/01/02 06:07:31;;;;;;;7.90;4.00;;;-0.30;99.90;;;;;;5027913;28;20197;-59
2022/01/02 06:09:56;;;;;;;4.40;3.60;;;-0.30;99.90;;;;;;5028639;28;20435;-59
2022/01/02 06:12:23;;;;;;;7.10;4.20;;;-0.40;99.90;;;;;;5028231;28;20424;-58
2022/01/02 06:14:49;;;;;;;8.50;3.97;;;-0.40;99.90;;;;;;5029114;28;20166;-59
2022/01/02 06:17:14;;;;;;;5.87;3.87;;;-0.40;99.90;;;;;;5027796;28;20468;-57
2022/01/02 06:19:40;;;;;;;5.10;3.93;;;-0.50;99.90;;;;;;5011233;28;20428;-59
2022/01/02 06:22:06;;;;;;;6.20;4.37;;;-0.50;99.90;;;;;;5029261;28;20174;-57
2022/01/02 06:24:31;;;;;;;5.97;4.67;;;-0.50;99.90;;;;;;5029067;28;20692;-59
2022/01/02 06:26:57;;;;;;;7.23;5.10;;;-0.50;99.90;;;;;;5027410;28;20205;-59
2022/01/02 06:29:22;;;;;;;7.70;5.13;;;-0.50;99.90;;;;;;5028923;28;20633;-59
2022/01/02 06:31:48;;;;;;;8.07;5.47;;;-0.50;99.90;;;;;;5026660;28;20198;-59
2022/01/02 06:34:14;;;;;;;8.57;5.57;;;-0.40;99.90;;;;;;5029277;28;20328;-60
2022/01/02 06:36:39;;;;;;;7.20;4.77;;;-0.40;99.90;;;;;;5029129;28;20711;-59
2022/01/02 06:39:05;;;;;;;7.13;5.07;;;-0.40;99.90;;;;;;5028255;28;20568;-60
2022/01/02 06:41:31;;;;;;;7.17;5.40;;;-0.40;99.90;;;;;;5026885;28;20233;-59
2022/01/02 06:43:56;;;;;;;9.20;5.97;;;-0.40;99.90;;;;;;5029172;28;20174;-59
2022/01/02 06:46:22;;;;;;;15.30;6.33;;;-0.30;99.90;;;;;;5026009;28;20200;-60
2022/01/02 06:48:48;;;;;;;8.67;5.07;;;-0.30;99.90;;;;;;5027388;28;20668;-59
2022/01/02 06:51:13;;;;;;;11.87;6.07;;;-0.30;99.90;;;;;;5008063;28;20599;-59
2022/01/02 06:53:39;;;;;;;22.10;5.63;;;-0.30;99.90;;;;;;5027993;28;20518;-58
2022/01/02 06:56:05;;;;;;;17.50;6.10;;;-0.30;99.90;;;;;;5026082;28;20205;-59
2022/01/02 06:58:31;;;;;;;13.43;6.40;;;-0.30;99.90;;;;;;5026355;28;20448;-57
2022/01/02 07:00:57;;;;;;;24.00;7.60;;;-0.30;99.90;;;;;;5023883;28;20180;-60
2022/01/02 07:03:27;;;;;;;16.47;6.60;;;-0.30;99.90;;;;;;5028161;28;20320;-59
2022/01/02 07:05:52;;;;;;;11.70;6.20;;;-0.30;99.90;;;;;;5027152;28;20443;-59
2022/01/02 07:08:18;;;;;;;22.97;6.10;;;-0.30;99.90;;;;;;5027533;28;20977;-59
2022/01/02 07:10:43;;;;;;;10.37;5.57;;;-0.30;99.90;;;;;;5027296;28;20179;-59
2022/01/02 07:13:09;;;;;;;13.63;6.97;;;-0.30;99.90;;;;;;5027633;28;20264;-59
2022/01/02 07:15:34;;;;;;;11.10;6.67;;;-0.30;99.90;;;;;;5025632;28;20193;-59
2022/01/02 07:18:00;;;;;;;33.33;6.53;;;-0.30;99.90;;;;;;5027706;28;20201;-59
2022/01/02 07:20:26;;;;;;;8.90;4.93;;;-0.20;99.90;;;;;;5028563;28;20439;-58
2022/01/02 07:22:52;;;;;;;16.00;5.57;;;-0.20;99.90;;;;;;5027434;28;20174;-59
2022/01/02 07:25:17;;;;;;;9.50;4.57;;;-0.20;99.90;;;;;;5025604;28;20198;-59
2022/01/02 07:27:43;;;;;;;8.73;5.37;;;-0.20;99.90;;;;;;5024131;28;20225;-60
2022/01/02 07:30:09;;;;;;;8.27;5.00;;;-0.20;99.90;;;;;;5025952;28;20293;-59
2022/01/02 07:32:35;;;;;;;10.70;5.53;;;-0.20;99.90;;;;;;5027734;28;20339;-59
2022/01/02 07:35:03;;;;;;;8.00;4.87;;;-0.20;99.90;;;;;;5026856;28;20460;-59
2022/01/02 07:37:29;;;;;;;6.27;4.60;;;-0.20;99.90;;;;;;5027326;28;21217;-59
2022/01/02 07:39:55;;;;;;;7.03;4.57;;;-0.10;99.90;;;;;;5027057;28;20452;-59
2022/01/02 07:42:20;;;;;;;6.70;4.10;;;-0.10;99.90;;;;;;5007337;28;20268;-59
2022/01/02 07:44:46;;;;;;;6.13;4.63;;;-0.10;99.90;;;;;;5026538;28;20169;-59
2022/01/02 07:47:12;;;;;;;5.97;4.30;;;0.00;99.90;;;;;;5023348;28;20301;-59
2022/01/02 07:49:37;;;;;;;7.23;4.57;;;0.00;99.90;;;;;;5024672;28;20531;-59
2022/01/02 07:52:03;;;;;;;8.07;4.73;;;0.00;99.90;;;;;;5022771;28;20185;-59
2022/01/02 07:54:29;;;;;;;8.63;5.13;;;0.10;99.90;;;;;;5026444;28;20223;-59
2022/01/02 07:56:54;;;;;;;9.63;5.03;;;0.10;99.90;;;;;;5026913;28;20217;-60
2022/01/02 07:59:20;;;;;;;9.60;5.60;;;0.10;99.90;;;;;;5026279;28;20185;-60
2022/01/02 08:01:46;;;;;;;13.10;5.97;;;0.20;99.90;;;;;;5023831;28;20653;-60
2022/01/02 08:04:12;;;;;;;10.80;5.60;;;0.30;99.90;;;;;;5023785;28;20184;-60
2022/01/02 08:06:38;;;;;;;6.03;4.67;;;0.30;99.90;;;;;;5024217;28;20396;-57
2022/01/02 08:09:04;;;;;;;7.77;4.33;;;0.40;99.90;;;;;;5021775;28;20451;-60
2022/01/02 08:11:30;;;;;;;5.10;3.90;;;0.40;99.90;;;;;;5007066;28;20683;-58
2022/01/02 08:13:56;;;;;;;7.20;4.50;;;0.50;99.90;;;;;;5025274;28;20440;-59
2022/01/02 08:16:21;;;;;;;6.30;4.20;;;0.50;99.90;;;;;;5025379;28;20301;-59
2022/01/02 08:18:47;;;;;;;6.50;4.93;;;0.50;99.90;;;;;;5022323;28;20578;-59
2022/01/02 08:21:12;;;;;;;6.00;4.47;;;0.60;99.90;;;;;;5025961;28;20551;-59
2022/01/02 08:23:38;;;;;;;6.33;4.53;;;0.60;99.90;;;;;;5006956;28;20392;-59
2022/01/02 08:26:04;;;;;;;7.20;4.80;;;0.70;99.90;;;;;;5025752;28;20227;-57
2022/01/02 08:28:29;;;;;;;8.60;4.93;;;0.60;99.90;;;;;;5025448;28;20317;-59
2022/01/02 08:30:58;;;;;;;5.57;4.47;;;0.70;99.90;;;;;;5024604;28;20218;-59
2022/01/02 08:33:24;;;;;;;11.00;4.90;;;0.70;99.90;;;;;;5025209;28;20186;-59
2022/01/02 08:35:49;;;;;;;6.47;3.87;;;0.70;99.90;;;;;;5016387;28;21010;-60
2022/01/02 08:38:15;;;;;;;5.77;4.20;;;0.70;99.90;;;;;;5019929;28;20238;-58
2022/01/02 08:40:41;;;;;;;5.40;4.20;;;0.70;99.90;;;;;;5022417;28;20174;-61
2022/01/02 08:43:09;;;;;;;4.80;4.17;;;0.70;99.90;;;;;;5022855;28;20186;-59
2022/01/02 08:45:37;;;;;;;7.57;4.90;;;0.80;99.90;;;;;;5020725;28;20978;-60
2022/01/02 08:48:04;;;;;;;10.63;5.93;;;0.80;99.90;;;;;;5024467;28;20468;-59
2022/01/02 08:50:30;;;;;;;7.07;5.20;;;0.90;99.90;;;;;;5005050;28;20432;-60
2022/01/02 08:52:56;;;;;;;7.17;5.00;;;0.90;99.90;;;;;;5023058;28;20454;-59
2022/01/02 08:55:21;;;;;;;11.87;6.83;;;0.90;99.90;;;;;;5023062;28;20707;-60
2022/01/02 08:57:47;;;;;;;10.17;6.70;;;1.00;99.90;;;;;;5023295;28;20205;-58
2022/01/02 09:00:13;;;;;;;9.50;7.20;;;1.00;99.90;;;;;;5018806;28;20739;-59
2022/01/02 09:02:39;;;;;;;9.20;5.97;;;1.00;99.90;;;;;;5003374;28;20814;-60
2022/01/02 09:05:06;;;;;;;10.73;6.27;;;1.10;99.90;;;;;;5022436;28;20447;-61
2022/01/02 09:07:32;;;;;;;9.50;5.80;;;1.10;99.90;;;;;;5022929;28;20205;-60
2022/01/02 09:09:58;;;;;;;8.90;5.73;;;1.20;99.90;;;;;;5018123;28;20445;-60
2022/01/02 09:12:24;;;;;;;10.63;5.97;;;1.30;99.90;;;;;;5024932;28;20194;-61
2022/01/02 09:14:49;;;;;;;10.87;5.97;;;1.40;99.90;;;;;;5023702;28;20626;-61
2022/01/02 09:17:15;;;;;;;10.73;5.30;;;1.40;99.90;;;;;;5021593;28;20597;-60
2022/01/02 09:19:40;;;;;;;7.43;5.13;;;1.40;99.90;;;;;;5016996;28;20528;-60
2022/01/02 09:22:06;;;;;;;8.50;5.13;;;1.40;99.90;;;;;;5022222;28;20200;-61
2022/01/02 09:24:32;;;;;;;12.47;5.73;;;1.50;99.90;;;;;;5004174;28;20182;-61
2022/01/02 09:26:58;;;;;;;9.07;5.40;;;1.50;99.90;;;;;;5020668;28;20214;-61
2022/01/02 09:29:24;;;;;;;8.00;5.60;;;1.50;99.90;;;;;;5025538;28;20193;-59
2022/01/02 09:31:50;;;;;;;9.00;5.57;;;1.50;99.90;;;;;;5020427;28;20436;-61
2022/01/02 09:34:16;;;;;;;8.60;5.63;;;1.60;99.90;;;;;;5021331;28;20184;-60
2022/01/02 09:36:41;;;;;;;10.27;6.10;;;1.60;99.90;;;;;;5024204;28;20537;-61
2022/01/02 09:39:07;;;;;;;9.37;6.37;;;1.70;99.90;;;;;;5023433;28;20185;-60
2022/01/02 09:41:33;;;;;;;8.70;5.80;;;1.80;99.90;;;;;;5026263;28;20270;-61
2022/01/02 09:43:59;;;;;;;8.50;6.53;;;1.80;99.90;;;;;;5021982;28;20180;-60
2022/01/02 09:46:26;;;;;;;11.00;6.93;;;1.90;99.90;;;;;;5020122;28;20225;-60
2022/01/02 09:48:53;;;;;;;10.80;7.20;;;2.00;99.90;;;;;;5020978;28;20449;-60
2022/01/02 09:51:24;;;;;;;16.10;8.00;;;2.20;99.90;;;;;;5023939;28;21038;-61
2022/01/02 09:53:50;;;;;;;11.87;7.77;;;2.40;99.90;;;;;;5023239;28;20464;-60
2022/01/02 09:56:16;;;;;;;11.10;6.57;;;2.60;99.90;;;;;;5024367;28;20512;-60
2022/01/02 09:58:43;;;;;;;8.80;6.30;;;2.80;99.90;;;;;;5024839;28;20422;-61
2022/01/02 10:01:19;;;;;;;13.23;7.67;;;3.00;99.90;;;;;;5021872;28;20277;-61
2022/01/02 10:03:50;;;;;;;10.40;6.70;;;3.20;99.90;;;;;;5025192;28;20476;-61
2022/01/02 10:06:16;;;;;;;11.13;6.13;;;3.40;99.90;;;;;;5023412;28;20922;-60
2022/01/02 10:08:43;;;;;;;7.30;5.83;;;3.50;99.90;;;;;;5024185;28;20417;-60
2022/01/02 10:11:21;;;;;;;9.20;6.03;;;3.50;99.90;;;;;;5020973;28;20988;-60
2022/01/02 10:13:50;;;;;;;9.20;6.23;;;3.50;99.90;;;;;;5023184;28;20982;-60
2022/01/02 10:16:33;;;;;;;9.30;5.37;;;3.60;99.90;;;;;;5022096;28;20453;-62
2022/01/02 10:19:18;;;;;;;6.77;4.60;;;3.70;99.90;;;;;;5026836;28;20447;-61
2022/01/02 10:21:52;;;;;;;8.50;5.60;;;3.70;99.90;;;;;;5026188;28;20453;-60
2022/01/02 10:24:27;;;;;;;10.03;5.90;;;3.70;99.90;;;;;;5027581;28;20520;-61
2022/01/02 10:27:07;;;;;;;8.83;6.00;;;3.80;99.90;;;;;;5027008;28;20472;-60
2022/01/02 10:29:56;;;;;;;13.60;7.87;;;3.90;99.90;;;;;;5023929;28;20830;-60
2022/01/02 10:32:32;;;;;;;15.77;8.20;;;4.00;99.90;;;;;;5007354;28;20415;-60
2022/01/02 10:35:24;;;;;;;14.53;8.10;;;4.00;99.90;;;;;;5027436;28;20525;-60
2022/01/02 10:37:52;;;;;;;13.63;7.40;;;4.10;99.90;;;;;;5025747;28;20466;-61
2022/01/02 10:40:31;;;;;;;12.77;8.33;;;4.30;99.90;;;;;;5007363;28;20426;-60
2022/01/02 10:42:58;;;;;;;11.63;7.80;;;4.40;99.90;;;;;;5027622;28;20507;-60
2022/01/02 10:45:44;;;;;;;15.60;9.10;;;4.60;99.90;;;;;;5021917;28;20513;-60
2022/01/02 10:48:13;;;;;;;18.93;10.43;;;4.70;99.90;;;;;;5023589;28;21020;-60
2022/01/02 10:50:40;;;;;;;20.63;10.90;;;4.80;99.90;;;;;;5023572;28;20472;-58
2022/01/02 10:53:17;;;;;;;13.93;8.43;;;4.80;99.90;;;;;;5024571;28;20434;-59
2022/01/02 10:55:45;;;;;;;10.10;7.27;;;4.80;99.90;;;;;;5007200;28;20481;-59
2022/01/02 10:58:11;;;;;;;10.70;7.00;;;4.70;99.90;;;;;;5022430;28;20450;-59
2022/01/02 11:00:38;;;;;;;10.10;6.93;;;4.70;99.90;;;;;;5019422;28;20511;-56
2022/01/02 11:03:06;;;;;;;12.93;7.33;;;4.60;99.90;;;;;;5006888;28;20450;-58
2022/01/02 11:05:34;;;;;;;11.30;7.30;;;4.60;99.90;;;;;;5021937;28;20582;-59
2022/01/02 11:08:02;;;;;;;14.23;8.50;;;4.60;99.90;;;;;;5015932;28;20855;-59
2022/01/02 11:10:28;;;;;;;12.90;8.40;;;4.60;99.90;;;;;;5003185;28;21138;-57
2022/01/02 11:12:55;;;;;;;14.77;8.90;;;4.60;99.90;;;;;;5015623;28;20418;-58
2022/01/02 11:15:23;;;;;;;12.80;8.70;;;4.70;99.90;;;;;;5018902;28;20455;-57
2022/01/02 11:17:50;;;;;;;13.00;8.50;;;4.80;99.90;;;;;;5014501;28;20531;-59
2022/01/02 11:20:17;;;;;;;15.90;8.40;;;4.90;99.90;;;;;;5018066;28;20517;-59
2022/01/02 11:23:11;;;;;;;16.97;9.13;;;5.00;99.90;;;;;;5018245;28;20665;-60
2022/01/02 11:25:51;;;;;;;12.83;9.27;;;5.00;99.90;;;;;;5020281;28;20503;-58
2022/01/02 11:28:36;;;;;;;20.17;12.60;;;5.00;99.90;;;;;;5002672;28;20573;-58
2022/01/02 11:31:04;;;;;;;26.87;15.90;;;5.00;99.90;;;;;;5015026;28;20976;-60
2022/01/02 11:33:31;;;;;;;20.10;13.07;;;5.00;99.90;;;;;;5018931;28;20464;-59
2022/01/02 11:35:59;;;;;;;19.60;12.60;;;5.00;99.90;;;;;;5020362;28;20454;-59
2022/01/02 11:38:26;;;;;;;17.50;11.00;;;5.10;99.90;;;;;;5000552;28;20453;-61
2022/01/02 11:40:56;;;;;;;23.57;13.80;;;5.10;99.90;;;;;;5018805;28;20434;-60
2022/01/02 11:43:49;;;;;;;17.40;12.60;;;5.20;99.90;;;;;;5019889;28;20522;-59
2022/01/02 11:46:24;;;;;;;19.50;11.73;;;5.30;99.90;;;;;;5016935;28;20705;-59
2022/01/02 11:49:14;;;;;;;18.70;11.40;;;5.40;99.90;;;;;;5026087;28;21298;-59
2022/01/02 11:51:53;;;;;;;13.67;8.87;;;5.50;99.90;;;;;;5024412;28;20493;-60
2022/01/02 11:54:40;;;;;;;16.23;9.07;;;5.60;99.90;;;;;;5024582;28;20931;-58
2022/01/02 11:57:11;;;;;;;15.37;8.10;;;5.70;99.90;;;;;;5019488;28;21000;-60
2022/01/02 11:59:40;;;;;;;10.23;5.83;;;5.80;99.90;;;;;;5000812;28;20426;-59
2022/01/02 12:02:18;;;;;;;11.93;6.10;;;6.00;99.90;;;;;;5026369;28;20426;-60
2022/01/02 12:05:14;;;;;;;11.30;6.83;;;6.10;99.90;;;;;;5024358;28;20438;-59
2022/01/02 12:07:50;;;;;;;10.73;6.53;;;6.20;99.90;;;;;;5005223;28;20456;-60
2022/01/02 12:10:16;;;;;;;12.37;7.30;;;6.30;99.90;;;;;;5020512;28;20876;-60
2022/01/02 12:15:42;;;;;;;10.73;5.80;;;6.70;99.90;;;;;;5030948;28;20666;-60
2022/01/02 12:18:33;;;;;;;7.93;5.30;;;6.80;99.90;;;;;;5010817;28;21078;-60
2022/01/02 12:21:04;;;;;;;10.93;6.07;;;7.10;99.90;;;;;;5017492;28;20433;-61
2022/01/02 12:26:04;;;;;;;9.30;5.90;;;7.40;99.90;;;;;;5017095;28;20489;-59
2022/01/02 12:28:40;;;;;;;6.87;5.23;;;7.60;99.90;;;;;;5013159;28;20546;-60
2022/01/02 12:31:09;;;;;;;9.90;6.10;;;7.80;99.90;;;;;;5013694;28;20435;-59
2022/01/02 12:33:36;;;;;;;12.40;7.27;;;7.90;99.90;;;;;;5015059;28;20454;-59
2022/01/02 12:36:14;;;;;;;12.60;7.50;;;8.00;99.90;;;;;;5015242;28;20480;-59
2022/01/02 12:38:51;;;;;;;18.33;5.50;;;8.00;99.90;;;;;;5016198;28;20507;-59
2022/01/02 12:41:19;;;;;;;9.00;5.70;;;8.10;99.90;;;;;;5006751;28;20439;-60
2022/01/02 12:44:10;;;;;;;10.73;6.13;;;8.20;99.90;;;;;;5019515;28;21079;-59
2022/01/02 12:46:56;;;;;;;7.67;4.80;;;8.30;99.90;;;;;;5015057;28;20461;-59
2022/01/02 12:49:31;;;;;;;7.77;4.53;;;8.40;99.90;;;;;;5014673;28;20945;-58
2022/01/02 12:52:07;;;;;;;8.80;5.40;;;8.50;99.90;;;;;;5009610;28;20445;-59
2022/01/02 12:54:35;;;;;;;7.83;5.37;;;8.50;99.90;;;;;;5014353;28;20488;-60
2022/01/02 12:57:08;;;;;;;7.67;4.87;;;8.50;99.90;;;;;;4999960;28;21052;-61
2022/01/02 12:59:36;;;;;;;7.00;5.00;;;8.50;99.90;;;;;;5014877;28;20496;-61
2022/01/02 13:02:04;;;;;;;10.60;5.80;;;8.40;99.90;;;;;;5019232;28;20434;-61
2022/01/02 13:04:36;;;;;;;12.53;6.73;;;8.50;99.90;;;;;;4997796;28;20820;-61